sensor_id;sensor_type;location;lat;lon;timestamp;pressure;altitude;pressure_sealevel;temperature;humidity
64844;BME280;51310;52.198;5.422;2022-12-18T00:01:21;102619.56;;;-5.13;100.00
64844;BME280;51310;52.198;5.422;2022-12-18T00:03:53;102614.75;;;-5.25;100.00
64844;BME280;51310;52.198;5.422;2022-12-18T00:06:21;102610.59;;;-5.21;100.00
64844;BME280;51310;52.198;5.422;2022-12-18T00:08:47;102606.66;;;-5.28;100.00
64844;BME280;51310;52.198;5.422;2022-12-18T00:11:17;102594.66;;;-5.25;100.00
64844;BME280;51310;52.198;5.422;2022-12-18T00:13:44;102601.72;;;-5.32;100.00
64844;BME280;51310;52.198;5.422;2022-12-18T00:16:14;102603.84;;;-5.30;100.00
64844;BME280;51310;52.198;5.422;2022-12-18T00:18:43;102600.19;;;-5.36;100.00
64844;BME280;51310;52.198;5.422;2022-12-18T00:21:12;102595.25;;;-5.40;100.00
64844;BME280;51310;52.198;5.422;2022-12-18T00:23:42;102602.63;;;-5.32;100.00
64844;BME280;51310;52.198;5.422;2022-12-18T00:26:30;102606.72;;;-5.32;100.00
64844;BME280;51310;52.198;5.422;2022-12-18T00:29:13;102603.22;;;-5.29;100.00
64844;BME280;51310;52.198;5.422;2022-12-18T00:31:40;102600.13;;;-5.32;100.00
64844;BME280;51310;52.198;5.422;2022-12-18T00:34:11;102595.03;;;-5.28;100.00
64844;BME280;51310;52.198;5.422;2022-12-18T00:36:40;102594.81;;;-5.33;100.00
64844;BME280;51310;52.198;5.422;2022-12-18T00:39:07;102590.38;;;-5.30;100.00
64844;BME280;51310;52.198;5.422;2022-12-18T00:41:33;102583.84;;;-5.34;100.00
64844;BME280;51310;52.198;5.422;2022-12-18T00:44:25;102583.94;;;-5.38;100.00
64844;BME280;51310;52.198;5.422;2022-12-18T00:46:51;102592.03;;;-5.35;100.00
64844;BME280;51310;52.198;5.422;2022-12-18T00:49:19;102605.06;;;-5.28;100.00
64844;BME280;51310;52.198;5.422;2022-12-18T00:51:45;102594.25;;;-5.37;100.00
64844;BME280;51310;52.198;5.422;2022-12-18T00:54:11;102592.13;;;-5.39;100.00
64844;BME280;51310;52.198;5.422;2022-12-18T00:56:38;102591.69;;;-5.32;100.00
64844;BME280;51310;52.198;5.422;2022-12-18T00:59:04;102586.66;;;-5.32;100.00
64844;BME280;51310;52.198;5.422;2022-12-18T01:01:31;102591.25;;;-5.44;100.00
64844;BME280;51310;52.198;5.422;2022-12-18T01:03:59;102599.28;;;-5.54;100.00
64844;BME280;51310;52.198;5.422;2022-12-18T01:06:26;102594.03;;;-5.42;100.00
64844;BME280;51310;52.198;5.422;2022-12-18T01:08:52;102587.25;;;-5.47;100.00
64844;BME280;51310;52.198;5.422;2022-12-18T01:11:20;102588.91;;;-5.52;100.00
64844;BME280;51310;52.198;5.422;2022-12-18T01:13:47;102578.19;;;-5.51;100.00
64844;BME280;51310;52.198;5.422;2022-12-18T01:16:16;102577.09;;;-5.57;100.00
64844;BME280;51310;52.198;5.422;2022-12-18T01:18:42;102585.16;;;-5.54;100.00
64844;BME280;51310;52.198;5.422;2022-12-18T01:21:12;102593.47;;;-5.45;100.00
64844;BME280;51310;52.198;5.422;2022-12-18T01:23:40;102594.75;;;-5.47;100.00
64844;BME280;51310;52.198;5.422;2022-12-18T01:26:13;102599.47;;;-5.49;100.00
64844;BME280;51310;52.198;5.422;2022-12-18T01:28:41;102610.47;;;-5.48;100.00
64844;BME280;51310;52.198;5.422;2022-12-18T01:31:27;102604.22;;;-5.68;100.00
64844;BME280;51310;52.198;5.422;2022-12-18T01:33:55;102596.69;;;-5.68;100.00
64844;BME280;51310;52.198;5.422;2022-12-18T01:36:31;102609.66;;;-5.75;100.00
64844;BME280;51310;52.198;5.422;2022-12-18T01:39:06;102613.81;;;-5.62;100.00
64844;BME280;51310;52.198;5.422;2022-12-18T01:41:34;102610.00;;;-5.60;100.00
64844;BME280;51310;52.198;5.422;2022-12-18T01:47:43;102612.47;;;-5.56;100.00
64844;BME280;51310;52.198;5.422;2022-12-18T01:50:23;102611.09;;;-5.49;100.00
64844;BME280;51310;52.198;5.422;2022-12-18T01:53:19;102614.91;;;-5.51;100.00
64844;BME280;51310;52.198;5.422;2022-12-18T01:55:53;102610.38;;;-5.44;100.00
64844;BME280;51310;52.198;5.422;2022-12-18T01:58:30;102603.88;;;-5.48;100.00
64844;BME280;51310;52.198;5.422;2022-12-18T02:01:01;102613.97;;;-5.52;100.00
64844;BME280;51310;52.198;5.422;2022-12-18T02:03:27;102620.13;;;-5.64;100.00
64844;BME280;51310;52.198;5.422;2022-12-18T02:06:13;102622.97;;;-5.66;100.00
64844;BME280;51310;52.198;5.422;2022-12-18T02:12:17;102636.00;;;-5.77;100.00
64844;BME280;51310;52.198;5.422;2022-12-18T02:15:13;102623.09;;;-5.92;100.00
64844;BME280;51310;52.198;5.422;2022-12-18T02:17:56;102622.25;;;-5.97;100.00
64844;BME280;51310;52.198;5.422;2022-12-18T02:20:36;102626.72;;;-6.00;100.00
64844;BME280;51310;52.198;5.422;2022-12-18T02:26:51;102634.09;;;-6.14;100.00
64844;BME280;51310;52.198;5.422;2022-12-18T02:29:48;102633.47;;;-6.13;100.00
64844;BME280;51310;52.198;5.422;2022-12-18T02:32:25;102638.53;;;-6.17;100.00
64844;BME280;51310;52.198;5.422;2022-12-18T02:34:56;102628.25;;;-6.23;100.00
64844;BME280;51310;52.198;5.422;2022-12-18T02:37:25;102628.56;;;-6.21;100.00
64844;BME280;51310;52.198;5.422;2022-12-18T02:39:56;102625.19;;;-6.26;100.00
64844;BME280;51310;52.198;5.422;2022-12-18T02:42:25;102620.44;;;-6.24;100.00
64844;BME280;51310;52.198;5.422;2022-12-18T02:44:56;102619.25;;;-6.26;100.00
64844;BME280;51310;52.198;5.422;2022-12-18T02:47:28;102617.72;;;-6.30;100.00
64844;BME280;51310;52.198;5.422;2022-12-18T02:56:02;102609.75;;;-6.41;100.00
64844;BME280;51310;52.198;5.422;2022-12-18T02:59:13;102600.66;;;-6.41;100.00
64844;BME280;51310;52.198;5.422;2022-12-18T03:01:57;102604.97;;;-6.35;100.00
64844;BME280;51310;52.198;5.422;2022-12-18T03:04:52;102596.22;;;-6.37;100.00
64844;BME280;51310;52.198;5.422;2022-12-18T03:07:42;102585.72;;;-6.49;100.00
64844;BME280;51310;52.198;5.422;2022-12-18T03:10:18;102591.03;;;-6.47;100.00
64844;BME280;51310;52.198;5.422;2022-12-18T03:13:36;102587.38;;;-6.53;100.00
64844;BME280;51310;52.198;5.422;2022-12-18T03:16:05;102581.84;;;-6.61;100.00
64844;BME280;51310;52.198;5.422;2022-12-18T03:18:47;102589.31;;;-6.56;100.00
64844;BME280;51310;52.198;5.422;2022-12-18T03:21:25;102586.19;;;-6.60;100.00
64844;BME280;51310;52.198;5.422;2022-12-18T03:23:55;102581.19;;;-6.60;100.00
64844;BME280;51310;52.198;5.422;2022-12-18T03:26:25;102579.91;;;-6.57;100.00
64844;BME280;51310;52.198;5.422;2022-12-18T03:29:07;102577.22;;;-6.67;100.00
64844;BME280;51310;52.198;5.422;2022-12-18T03:31:42;102576.06;;;-6.73;100.00
64844;BME280;51310;52.198;5.422;2022-12-18T03:34:23;102571.09;;;-6.77;100.00
64844;BME280;51310;52.198;5.422;2022-12-18T03:36:52;102564.16;;;-6.74;100.00
64844;BME280;51310;52.198;5.422;2022-12-18T03:39:19;102560.78;;;-6.79;100.00
64844;BME280;51310;52.198;5.422;2022-12-18T03:41:52;102554.56;;;-6.81;100.00
64844;BME280;51310;52.198;5.422;2022-12-18T03:44:31;102553.28;;;-6.79;100.00
64844;BME280;51310;52.198;5.422;2022-12-18T03:50:36;102549.25;;;-6.83;100.00
64844;BME280;51310;52.198;5.422;2022-12-18T03:53:50;102551.47;;;-6.84;100.00
64844;BME280;51310;52.198;5.422;2022-12-18T03:56:24;102554.25;;;-6.83;100.00
64844;BME280;51310;52.198;5.422;2022-12-18T03:58:53;102552.75;;;-6.86;100.00
64844;BME280;51310;52.198;5.422;2022-12-18T04:01:26;102545.50;;;-6.85;100.00
64844;BME280;51310;52.198;5.422;2022-12-18T04:03:56;102541.22;;;-6.90;100.00
64844;BME280;51310;52.198;5.422;2022-12-18T04:06:26;102538.72;;;-6.90;100.00
64844;BME280;51310;52.198;5.422;2022-12-18T04:08:52;102538.13;;;-6.93;100.00
64844;BME280;51310;52.198;5.422;2022-12-18T04:11:18;102539.09;;;-6.96;100.00
64844;BME280;51310;52.198;5.422;2022-12-18T04:13:44;102534.75;;;-6.97;100.00
64844;BME280;51310;52.198;5.422;2022-12-18T04:16:10;102533.78;;;-6.98;100.00
64844;BME280;51310;52.198;5.422;2022-12-18T04:18:37;102524.50;;;-7.03;100.00
64844;BME280;51310;52.198;5.422;2022-12-18T04:21:03;102520.41;;;-7.03;100.00
64844;BME280;51310;52.198;5.422;2022-12-18T04:23:29;102521.34;;;-7.02;100.00
64844;BME280;51310;52.198;5.422;2022-12-18T04:25:55;102519.50;;;-7.03;100.00
64844;BME280;51310;52.198;5.422;2022-12-18T04:28:21;102516.06;;;-7.04;100.00
64844;BME280;51310;52.198;5.422;2022-12-18T04:30:50;102511.72;;;-7.09;100.00
64844;BME280;51310;52.198;5.422;2022-12-18T04:33:19;102510.19;;;-7.08;100.00
64844;BME280;51310;52.198;5.422;2022-12-18T04:35:45;102518.25;;;-7.05;100.00
64844;BME280;51310;52.198;5.422;2022-12-18T04:38:11;102518.88;;;-7.06;100.00
64844;BME280;51310;52.198;5.422;2022-12-18T04:40:38;102513.97;;;-7.10;100.00
64844;BME280;51310;52.198;5.422;2022-12-18T04:43:04;102518.97;;;-7.10;100.00
64844;BME280;51310;52.198;5.422;2022-12-18T04:45:31;102529.94;;;-7.14;100.00
64844;BME280;51310;52.198;5.422;2022-12-18T04:47:58;102526.22;;;-7.16;100.00
64844;BME280;51310;52.198;5.422;2022-12-18T04:50:25;102539.03;;;-7.14;100.00
64844;BME280;51310;52.198;5.422;2022-12-18T04:52:51;102533.72;;;-7.16;100.00
64844;BME280;51310;52.198;5.422;2022-12-18T04:55:16;102539.66;;;-7.15;100.00
64844;BME280;51310;52.198;5.422;2022-12-18T04:57:42;102548.16;;;-7.19;100.00
64844;BME280;51310;52.198;5.422;2022-12-18T05:00:09;102548.47;;;-7.22;100.00
64844;BME280;51310;52.198;5.422;2022-12-18T05:02:36;102554.69;;;-7.19;100.00
64844;BME280;51310;52.198;5.422;2022-12-18T05:05:02;102561.28;;;-7.20;100.00
64844;BME280;51310;52.198;5.422;2022-12-18T05:07:28;102569.75;;;-7.24;100.00
64844;BME280;51310;52.198;5.422;2022-12-18T05:09:54;102577.94;;;-7.29;100.00
64844;BME280;51310;52.198;5.422;2022-12-18T05:12:24;102576.13;;;-7.34;100.00
64844;BME280;51310;52.198;5.422;2022-12-18T05:14:49;102582.41;;;-7.36;100.00
64844;BME280;51310;52.198;5.422;2022-12-18T05:17:15;102592.13;;;-7.42;100.00
64844;BME280;51310;52.198;5.422;2022-12-18T05:19:41;102578.72;;;-7.42;100.00
64844;BME280;51310;52.198;5.422;2022-12-18T05:22:08;102582.44;;;-7.40;100.00
64844;BME280;51310;52.198;5.422;2022-12-18T05:24:34;102585.88;;;-7.39;100.00
64844;BME280;51310;52.198;5.422;2022-12-18T05:27:00;102599.63;;;-7.42;100.00
64844;BME280;51310;52.198;5.422;2022-12-18T05:29:26;102607.47;;;-7.44;100.00
64844;BME280;51310;52.198;5.422;2022-12-18T05:31:52;102601.84;;;-7.43;100.00
64844;BME280;51310;52.198;5.422;2022-12-18T05:34:17;102609.03;;;-7.40;100.00
64844;BME280;51310;52.198;5.422;2022-12-18T05:36:43;102605.91;;;-7.44;100.00
64844;BME280;51310;52.198;5.422;2022-12-18T05:39:09;102607.19;;;-7.46;100.00
64844;BME280;51310;52.198;5.422;2022-12-18T05:41:35;102599.41;;;-7.47;100.00
64844;BME280;51310;52.198;5.422;2022-12-18T05:44:01;102596.28;;;-7.50;100.00
64844;BME280;51310;52.198;5.422;2022-12-18T05:46:27;102579.44;;;-7.51;100.00
64844;BME280;51310;52.198;5.422;2022-12-18T05:48:53;102580.94;;;-7.48;100.00
64844;BME280;51310;52.198;5.422;2022-12-18T05:51:22;102578.78;;;-7.50;100.00
64844;BME280;51310;52.198;5.422;2022-12-18T05:53:48;102569.13;;;-7.53;100.00
64844;BME280;51310;52.198;5.422;2022-12-18T05:56:20;102573.81;;;-7.54;100.00
64844;BME280;51310;52.198;5.422;2022-12-18T05:58:47;102577.91;;;-7.55;100.00
64844;BME280;51310;52.198;5.422;2022-12-18T06:01:21;102563.19;;;-7.53;100.00
64844;BME280;51310;52.198;5.422;2022-12-18T06:03:49;102574.16;;;-7.57;100.00
64844;BME280;51310;52.198;5.422;2022-12-18T06:06:24;102570.75;;;-7.57;100.00
64844;BME280;51310;52.198;5.422;2022-12-18T06:08:54;102561.69;;;-7.61;100.00
64844;BME280;51310;52.198;5.422;2022-12-18T06:11:24;102556.13;;;-7.64;100.00
64844;BME280;51310;52.198;5.422;2022-12-18T06:13:53;102558.31;;;-7.66;100.00
64844;BME280;51310;52.198;5.422;2022-12-18T06:16:20;102552.72;;;-7.69;100.00
64844;BME280;51310;52.198;5.422;2022-12-18T06:18:46;102548.66;;;-7.68;100.00
64844;BME280;51310;52.198;5.422;2022-12-18T06:21:12;102550.22;;;-7.69;100.00
64844;BME280;51310;52.198;5.422;2022-12-18T06:23:38;102551.19;;;-7.72;100.00
64844;BME280;51310;52.198;5.422;2022-12-18T06:26:07;102546.81;;;-7.73;100.00
64844;BME280;51310;52.198;5.422;2022-12-18T06:28:35;102542.13;;;-7.72;100.00
64844;BME280;51310;52.198;5.422;2022-12-18T06:31:03;102542.41;;;-7.70;100.00
64844;BME280;51310;52.198;5.422;2022-12-18T06:33:30;102534.63;;;-7.72;100.00
64844;BME280;51310;52.198;5.422;2022-12-18T06:36:09;102532.78;;;-7.73;100.00
64844;BME280;51310;52.198;5.422;2022-12-18T06:38:39;102526.81;;;-7.73;100.00
64844;BME280;51310;52.198;5.422;2022-12-18T06:41:09;102522.50;;;-7.78;100.00
64844;BME280;51310;52.198;5.422;2022-12-18T06:43:35;102524.38;;;-7.77;100.00
64844;BME280;51310;52.198;5.422;2022-12-18T06:46:03;102520.28;;;-7.73;100.00
64844;BME280;51310;52.198;5.422;2022-12-18T06:48:29;102522.47;;;-7.74;100.00
64844;BME280;51310;52.198;5.422;2022-12-18T06:50:55;102513.38;;;-7.74;100.00
64844;BME280;51310;52.198;5.422;2022-12-18T06:53:22;102519.97;;;-7.74;100.00
64844;BME280;51310;52.198;5.422;2022-12-18T06:55:48;102500.88;;;-7.74;100.00
64844;BME280;51310;52.198;5.422;2022-12-18T06:58:14;102505.59;;;-7.75;100.00
64844;BME280;51310;52.198;5.422;2022-12-18T07:00:41;102499.66;;;-7.76;100.00
64844;BME280;51310;52.198;5.422;2022-12-18T07:03:07;102492.16;;;-7.76;100.00
64844;BME280;51310;52.198;5.422;2022-12-18T07:05:33;102495.28;;;-7.73;100.00
64844;BME280;51310;52.198;5.422;2022-12-18T07:07:59;102489.97;;;-7.74;100.00
64844;BME280;51310;52.198;5.422;2022-12-18T07:10:25;102495.56;;;-7.71;100.00
64844;BME280;51310;52.198;5.422;2022-12-18T07:12:51;102489.41;;;-7.77;100.00
64844;BME280;51310;52.198;5.422;2022-12-18T07:15:17;102489.75;;;-7.84;100.00
64844;BME280;51310;52.198;5.422;2022-12-18T07:17:43;102483.50;;;-7.86;100.00
64844;BME280;51310;52.198;5.422;2022-12-18T07:20:09;102490.38;;;-7.85;100.00
64844;BME280;51310;52.198;5.422;2022-12-18T07:22:35;102479.81;;;-7.88;100.00
64844;BME280;51310;52.198;5.422;2022-12-18T07:25:01;102474.50;;;-7.90;100.00
64844;BME280;51310;52.198;5.422;2022-12-18T07:27:27;102482.31;;;-7.88;100.00
64844;BME280;51310;52.198;5.422;2022-12-18T07:29:53;102488.81;;;-7.85;100.00
64844;BME280;51310;52.198;5.422;2022-12-18T07:32:20;102479.50;;;-7.90;100.00
64844;BME280;51310;52.198;5.422;2022-12-18T07:34:46;102467.59;;;-7.87;100.00
64844;BME280;51310;52.198;5.422;2022-12-18T07:37:12;102464.75;;;-7.84;100.00
64844;BME280;51310;52.198;5.422;2022-12-18T07:39:37;102456.63;;;-7.83;100.00
64844;BME280;51310;52.198;5.422;2022-12-18T07:42:04;102460.06;;;-7.82;100.00
64844;BME280;51310;52.198;5.422;2022-12-18T07:44:51;102455.97;;;-7.82;100.00
64844;BME280;51310;52.198;5.422;2022-12-18T07:47:17;102463.22;;;-7.84;100.00
64844;BME280;51310;52.198;5.422;2022-12-18T07:49:43;102443.53;;;-7.86;100.00
64844;BME280;51310;52.198;5.422;2022-12-18T07:52:08;102439.75;;;-7.84;100.00
64844;BME280;51310;52.198;5.422;2022-12-18T07:54:35;102435.09;;;-7.87;100.00
64844;BME280;51310;52.198;5.422;2022-12-18T07:57:00;102431.34;;;-7.85;100.00
64844;BME280;51310;52.198;5.422;2022-12-18T07:59:26;102430.41;;;-7.85;100.00
64844;BME280;51310;52.198;5.422;2022-12-18T08:01:52;102434.78;;;-7.84;100.00
64844;BME280;51310;52.198;5.422;2022-12-18T08:04:18;102431.25;;;-7.76;100.00
64844;BME280;51310;52.198;5.422;2022-12-18T08:06:44;102425.56;;;-7.71;100.00
64844;BME280;51310;52.198;5.422;2022-12-18T08:09:10;102423.03;;;-7.67;100.00
64844;BME280;51310;52.198;5.422;2022-12-18T08:11:36;102417.63;;;-7.60;100.00
64844;BME280;51310;52.198;5.422;2022-12-18T08:14:02;102407.31;;;-7.58;100.00
64844;BME280;51310;52.198;5.422;2022-12-18T08:16:28;102407.53;;;-7.52;100.00
64844;BME280;51310;52.198;5.422;2022-12-18T08:18:54;102410.97;;;-7.52;100.00
64844;BME280;51310;52.198;5.422;2022-12-18T08:21:27;102416.56;;;-7.49;100.00
64844;BME280;51310;52.198;5.422;2022-12-18T08:23:58;102420.53;;;-7.41;100.00
64844;BME280;51310;52.198;5.422;2022-12-18T08:26:27;102434.19;;;-7.35;100.00
64844;BME280;51310;52.198;5.422;2022-12-18T08:28:57;102431.66;;;-7.31;100.00
64844;BME280;51310;52.198;5.422;2022-12-18T08:31:25;102428.44;;;-7.26;100.00
64844;BME280;51310;52.198;5.422;2022-12-18T08:33:53;102431.19;;;-7.20;100.00
64844;BME280;51310;52.198;5.422;2022-12-18T08:36:20;102430.84;;;-7.17;100.00
64844;BME280;51310;52.198;5.422;2022-12-18T08:38:47;102439.81;;;-7.10;100.00
64844;BME280;51310;52.198;5.422;2022-12-18T08:41:16;102440.03;;;-7.04;100.00
64844;BME280;51310;52.198;5.422;2022-12-18T08:43:42;102435.59;;;-6.97;100.00
64844;BME280;51310;52.198;5.422;2022-12-18T08:46:32;102433.66;;;-6.94;100.00
64844;BME280;51310;52.198;5.422;2022-12-18T08:49:00;102426.94;;;-6.85;100.00
64844;BME280;51310;52.198;5.422;2022-12-18T08:51:26;102438.78;;;-6.80;100.00
64844;BME280;51310;52.198;5.422;2022-12-18T08:53:52;102430.19;;;-6.72;100.00
64844;BME280;51310;52.198;5.422;2022-12-18T08:56:18;102436.38;;;-6.66;100.00
64844;BME280;51310;52.198;5.422;2022-12-18T08:58:44;102438.34;;;-6.51;100.00
64844;BME280;51310;52.198;5.422;2022-12-18T09:01:12;102430.75;;;-6.47;100.00
64844;BME280;51310;52.198;5.422;2022-12-18T09:03:39;102442.44;;;-6.34;100.00
64844;BME280;51310;52.198;5.422;2022-12-18T09:06:06;102441.03;;;-6.24;100.00
64844;BME280;51310;52.198;5.422;2022-12-18T09:08:36;102440.22;;;-6.14;100.00
64844;BME280;51310;52.198;5.422;2022-12-18T09:11:02;102436.84;;;-6.01;100.00
64844;BME280;51310;52.198;5.422;2022-12-18T09:13:28;102425.72;;;-5.93;100.00
64844;BME280;51310;52.198;5.422;2022-12-18T09:15:55;102414.59;;;-5.86;100.00
64844;BME280;51310;52.198;5.422;2022-12-18T09:18:23;102411.66;;;-5.79;100.00
64844;BME280;51310;52.198;5.422;2022-12-18T09:20:49;102402.75;;;-5.73;100.00
64844;BME280;51310;52.198;5.422;2022-12-18T09:23:19;102405.41;;;-5.63;100.00
64844;BME280;51310;52.198;5.422;2022-12-18T09:25:45;102418.69;;;-5.54;100.00
64844;BME280;51310;52.198;5.422;2022-12-18T09:28:17;102414.69;;;-5.44;100.00
64844;BME280;51310;52.198;5.422;2022-12-18T09:30:47;102423.34;;;-5.38;100.00
64844;BME280;51310;52.198;5.422;2022-12-18T09:33:15;102419.75;;;-5.30;100.00
64844;BME280;51310;52.198;5.422;2022-12-18T09:35:44;102413.06;;;-5.26;100.00
64844;BME280;51310;52.198;5.422;2022-12-18T09:38:18;102401.06;;;-5.23;100.00
64844;BME280;51310;52.198;5.422;2022-12-18T09:40:51;102400.25;;;-5.13;100.00
64844;BME280;51310;52.198;5.422;2022-12-18T09:43:45;102403.63;;;-5.09;100.00
64844;BME280;51310;52.198;5.422;2022-12-18T09:46:31;102402.13;;;-4.99;100.00
64844;BME280;51310;52.198;5.422;2022-12-18T09:49:06;102388.16;;;-4.92;100.00
64844;BME280;51310;52.198;5.422;2022-12-18T09:51:52;102387.81;;;-4.90;100.00
64844;BME280;51310;52.198;5.422;2022-12-18T09:57:49;102382.22;;;-4.79;100.00
64844;BME280;51310;52.198;5.422;2022-12-18T10:00:24;102361.91;;;-4.71;100.00
64844;BME280;51310;52.198;5.422;2022-12-18T10:02:55;102363.97;;;-4.64;100.00
64844;BME280;51310;52.198;5.422;2022-12-18T10:12:12;102366.22;;;-4.42;100.00
64844;BME280;51310;52.198;5.422;2022-12-18T10:17:39;102359.56;;;-4.28;100.00
64844;BME280;51310;52.198;5.422;2022-12-18T10:20:44;102365.56;;;-4.18;100.00
64844;BME280;51310;52.198;5.422;2022-12-18T10:23:54;102359.13;;;-4.12;100.00
64844;BME280;51310;52.198;5.422;2022-12-18T10:26:44;102353.72;;;-4.09;100.00
64844;BME280;51310;52.198;5.422;2022-12-18T10:29:18;102342.75;;;-4.00;100.00
64844;BME280;51310;52.198;5.422;2022-12-18T10:31:44;102354.69;;;-3.99;100.00
64844;BME280;51310;52.198;5.422;2022-12-18T10:34:11;102357.22;;;-3.89;100.00
64844;BME280;51310;52.198;5.422;2022-12-18T10:36:40;102352.78;;;-3.86;100.00
64844;BME280;51310;52.198;5.422;2022-12-18T10:39:24;102339.13;;;-3.82;100.00
64844;BME280;51310;52.198;5.422;2022-12-18T10:42:18;102342.09;;;-3.75;100.00
64844;BME280;51310;52.198;5.422;2022-12-18T10:44:45;102343.16;;;-3.69;100.00
64844;BME280;51310;52.198;5.422;2022-12-18T10:47:17;102349.41;;;-3.67;100.00
64844;BME280;51310;52.198;5.422;2022-12-18T10:49:52;102345.56;;;-3.65;100.00
64844;BME280;51310;52.198;5.422;2022-12-18T10:52:23;102335.91;;;-3.58;100.00
64844;BME280;51310;52.198;5.422;2022-12-18T10:55:02;102336.31;;;-3.51;100.00
64844;BME280;51310;52.198;5.422;2022-12-18T10:57:31;102337.78;;;-3.47;100.00
64844;BME280;51310;52.198;5.422;2022-12-18T11:00:25;102324.66;;;-3.50;100.00
64844;BME280;51310;52.198;5.422;2022-12-18T11:02:51;102325.22;;;-3.47;100.00
64844;BME280;51310;52.198;5.422;2022-12-18T11:07:56;102312.63;;;-3.37;100.00
64844;BME280;51310;52.198;5.422;2022-12-18T11:10:32;102303.88;;;-3.39;100.00
64844;BME280;51310;52.198;5.422;2022-12-18T11:13:24;102298.31;;;-3.33;100.00
64844;BME280;51310;52.198;5.422;2022-12-18T11:15:52;102288.94;;;-3.24;100.00
64844;BME280;51310;52.198;5.422;2022-12-18T11:18:35;102283.25;;;-3.23;100.00
64844;BME280;51310;52.198;5.422;2022-12-18T11:21:12;102291.19;;;-3.16;100.00
64844;BME280;51310;52.198;5.422;2022-12-18T11:23:49;102277.41;;;-3.08;100.00
64844;BME280;51310;52.198;5.422;2022-12-18T11:26:17;102274.50;;;-3.05;100.00
64844;BME280;51310;52.198;5.422;2022-12-18T11:28:52;102270.25;;;-3.01;100.00
64844;BME280;51310;52.198;5.422;2022-12-18T11:31:33;102265.63;;;-2.94;100.00
64844;BME280;51310;52.198;5.422;2022-12-18T11:34:10;102263.34;;;-2.92;100.00
64844;BME280;51310;52.198;5.422;2022-12-18T11:36:46;102274.47;;;-2.86;100.00
64844;BME280;51310;52.198;5.422;2022-12-18T11:42:25;102283.59;;;-2.77;100.00
64844;BME280;51310;52.198;5.422;2022-12-18T11:45:44;102277.63;;;-2.67;100.00
64844;BME280;51310;52.198;5.422;2022-12-18T11:48:27;102272.47;;;-2.63;100.00
64844;BME280;51310;52.198;5.422;2022-12-18T11:50:58;102277.34;;;-2.59;100.00
64844;BME280;51310;52.198;5.422;2022-12-18T11:53:27;102273.25;;;-2.59;100.00
64844;BME280;51310;52.198;5.422;2022-12-18T11:56:04;102258.63;;;-2.56;100.00
64844;BME280;51310;52.198;5.422;2022-12-18T11:58:54;102254.13;;;-2.53;100.00
64844;BME280;51310;52.198;5.422;2022-12-18T12:01:50;102249.19;;;-2.47;100.00
64844;BME280;51310;52.198;5.422;2022-12-18T12:07:33;102247.44;;;-2.42;100.00
64844;BME280;51310;52.198;5.422;2022-12-18T12:11:00;102231.81;;;-2.45;100.00
64844;BME280;51310;52.198;5.422;2022-12-18T12:26:06;102213.53;;;-2.29;100.00
64844;BME280;51310;52.198;5.422;2022-12-18T12:40:04;102189.47;;;-2.17;100.00
64844;BME280;51310;52.198;5.422;2022-12-18T12:42:41;102183.75;;;-2.16;100.00
64844;BME280;51310;52.198;5.422;2022-12-18T12:48:40;102171.00;;;-2.12;100.00
64844;BME280;51310;52.198;5.422;2022-12-18T12:51:28;102170.56;;;-2.10;100.00
64844;BME280;51310;52.198;5.422;2022-12-18T12:53:58;102166.97;;;-2.06;100.00
64844;BME280;51310;52.198;5.422;2022-12-18T13:00:12;102164.72;;;-2.04;100.00
64844;BME280;51310;52.198;5.422;2022-12-18T13:03:07;102159.69;;;-2.04;100.00
64844;BME280;51310;52.198;5.422;2022-12-18T13:05:46;102165.06;;;-1.97;100.00
64844;BME280;51310;52.198;5.422;2022-12-18T13:08:29;102156.16;;;-1.95;100.00
64844;BME280;51310;52.198;5.422;2022-12-18T13:11:00;102154.66;;;-1.89;100.00
64844;BME280;51310;52.198;5.422;2022-12-18T13:13:55;102162.97;;;-1.84;100.00
64844;BME280;51310;52.198;5.422;2022-12-18T13:16:24;102160.47;;;-1.84;100.00
64844;BME280;51310;52.198;5.422;2022-12-18T13:18:57;102158.78;;;-1.90;100.00
64844;BME280;51310;52.198;5.422;2022-12-18T13:21:31;102149.88;;;-1.88;100.00
64844;BME280;51310;52.198;5.422;2022-12-18T13:24:30;102156.75;;;-1.87;100.00
64844;BME280;51310;52.198;5.422;2022-12-18T13:27:00;102153.03;;;-1.89;100.00
64844;BME280;51310;52.198;5.422;2022-12-18T13:29:52;102147.34;;;-1.88;100.00
64844;BME280;51310;52.198;5.422;2022-12-18T13:32:25;102144.41;;;-1.85;100.00
64844;BME280;51310;52.198;5.422;2022-12-18T13:37:55;102138.94;;;-1.82;99.92
64844;BME280;51310;52.198;5.422;2022-12-18T13:46:03;102118.75;;;-1.82;99.70
64844;BME280;51310;52.198;5.422;2022-12-18T13:48:37;102110.09;;;-1.79;99.45
64844;BME280;51310;52.198;5.422;2022-12-18T13:51:10;102103.44;;;-1.78;99.30
64844;BME280;51310;52.198;5.422;2022-12-18T13:53:45;102088.47;;;-1.82;99.38
64844;BME280;51310;52.198;5.422;2022-12-18T13:56:22;102093.09;;;-1.80;98.88
64844;BME280;51310;52.198;5.422;2022-12-18T13:59:12;102088.47;;;-1.82;98.88
64844;BME280;51310;52.198;5.422;2022-12-18T14:02:07;102092.16;;;-1.80;99.10
64844;BME280;51310;52.198;5.422;2022-12-18T14:04:38;102093.84;;;-1.75;98.69
64844;BME280;51310;52.198;5.422;2022-12-18T14:07:14;102088.56;;;-1.77;98.20
64844;BME280;51310;52.198;5.422;2022-12-18T14:09:49;102078.47;;;-1.77;98.51
64844;BME280;51310;52.198;5.422;2022-12-18T14:12:34;102082.41;;;-1.73;98.57
64844;BME280;51310;52.198;5.422;2022-12-18T14:21:26;102064.72;;;-1.73;98.25
64844;BME280;51310;52.198;5.422;2022-12-18T14:24:18;102071.66;;;-1.72;98.47
64844;BME280;51310;52.198;5.422;2022-12-18T14:26:50;102061.56;;;-1.72;97.99
64844;BME280;51310;52.198;5.422;2022-12-18T14:29:27;102053.06;;;-1.73;97.26
64844;BME280;51310;52.198;5.422;2022-12-18T14:32:18;102048.78;;;-1.68;97.36
64844;BME280;51310;52.198;5.422;2022-12-18T14:34:53;102045.81;;;-1.66;97.19
64844;BME280;51310;52.198;5.422;2022-12-18T14:37:26;102038.41;;;-1.70;97.27